Kansas City, Missouri
Traffic Map
Current Weather Conditions
Kansas City, Missouri
Clear Haze
Clear
13°
Feels Like: 13°
Wind Chill: 13° Ceiling: Unl
Heat Index: 13° Visibility: 3mi
Dew Point: 12° Wind: 6mph
Humidity: 93% Direction: 200° (SSW)
Pressure: 30.07in Gusts: 0mph
Raw Report DataKMKC 240754Z 20005KT 3SM BR CLR 13/12 A3007 RMK AO2 SLP181 T01330122
Traffic Incident Summary
Active as of:
Severity:
Category:
InformationThere was an issue retrieving the traffic information for this location. Please try a different location or try again shortly.
Advertisements
Track Severe Weather on mobile